Pagrindinis puslapis
METAR-TAF:

METAR-TAF

Oro uostai :

Insbruko oro uostas

Insbrukas, Austrija

platuma: 47-16N, ilguma: 011-21E, Aukštis: 581 m

Dabartinis oras

Ataskaita buvo paskelbta 19 minutes, ne 18:50 UTC
Vėjas 2 kt nuo kintamojo kryptimis
Temperatūra 11°C
Drėgmė 71%
Slėgis 1026 hPa
Matomumas 10 km arba daugiau
nėra debesų žemiau 1500 m ir nėra kamuolinių lietaus debesų

METAR: LOWI 191850Z VRB02KT CAVOK 11/06 Q1026 NOSIG

Laikas: 21:09 (19:09 UTC)

Prognozė

Ataskaita buvo paskelbta 1 valandą ir 54 minutes, ne 17:15 UTC
Prognozė galioja nuo 19 metu 18 UTC su 20 metu 18 UTC
Vėjas 5 kt iš Rytų
Matomumas 10 km arba daugiau
nėra debesų žemiau 1500 m ir nėra kamuolinių lietaus debesų
Laikinai
nuo 20 metu 12 UTC su 20 metu 17 UTC
Vėjas 12 kt iš Rytų

TAF: LOWI 191715Z 1918/2018 08005KT CAVOK TX19/2014Z TN06/2004Z TEMPO 2012/2017 08012KT

Orai ataskaitas ir orų prognozės (METAR, TAF).

turimą stotys yra geltonos ir raudonos taškus žemėlapyje.

Perkelti pele per norėdami pamatyti stoties vardą.

Tada spustelėkite, norėdami matyti oro stebėjimo ir prognozės.

Norėdami pakeisti žemėlapį: spustelėkite ant žalios mygtukų su juodo kryžiaus žemyn,; žalią mygtuką su brūkšneliu, jei norite nutolinti; arba žalių rodyklių gretimoms žemėlapius.


METAR-TAF: